(°C)
16°
15°
14°
13°
12°
12°
11°
(°C)
16°
15°
14°
13°
12°
11°
11°
Ю
ЮЮЗ
ЗЮЗ
З
ЗЮЗ
ЗЮЗ
ЮЗ
(km/h)
2-9
2-5
2-5
2-4
3-3
3-4
3-4
(mm)
0
0
0
0
0
0
0
(%)
0
0
0
0
0
0
0

Издигане на слънцето

/ -11.9°
sun-icon
UV 5
05:25
20:57
Намаляващ полумесец (315°)
03:48
16:48

METAR за Инсбрук (LOWI)

Час Условия Температура/
Точка на оросяване
Вятър Видимост Времето Облаци Налягане Промяна Сурови
VFR 17°C / 11°C variable 1kt >10km - Few Clouds 5000ft 1023 No Significant change LOWI 261950Z VRB01KT 9999 FEW050 17/11 Q1023 NOSIG
VFR 18°C / 11°C variable 2kt >10km - Few Clouds 5000ft 1023 No Significant change LOWI 261920Z VRB02KT 9999 FEW050 18/11 Q1023 NOSIG
VFR 18°C / 12°C variable 2kt >10km - Few Clouds 5000ft 1023 No Significant change LOWI 261850Z VRB02KT 9999 FEW050 18/12 Q1023 NOSIG
VFR 20°C / 11°C 100º variable 050º to 120º 7kt >10km - Few Clouds 5000ft 1022 No Significant change LOWI 261820Z 10007KT 050V120 9999 FEW050 20/11 Q1022 NOSIG
VFR 20°C / 12°C 50º variable 020º to 110º 5kt >10km - Few Clouds 6000ft 1022 No Significant change LOWI 261750Z 05005KT 020V110 9999 FEW060 20/12 Q1022 NOSIG
VFR 21°C / 10°C 90º 10kt >10km - Few Clouds 6000ft 1022 No Significant change LOWI 261720Z 09010KT 9999 FEW060 21/10 Q1022 NOSIG
VFR 21°C / 11°C 100º variable 070º to 130º 10kt >10km - Few Clouds 6000ft 1022 No Significant change LOWI 261650Z 10010KT 070V130 9999 FEW060 21/11 Q1022 NOSIG
VFR 22°C / 11°C 90º 11kt >10km - Few Clouds 6000ft 1022 No Significant change LOWI 261620Z 09011KT 9999 FEW060 22/11 Q1022 NOSIG
VFR 22°C / 11°C 90º 12kt >10km - Few Clouds 6000ft 1022 No Significant change LOWI 261550Z 09012KT 9999 FEW060 22/11 Q1022 NOSIG
VFR 22°C / 11°C 90º 14kt >10km - Few Clouds 6000ft
Scattered Clouds 9000ft
1022 No Significant change LOWI 261520Z 09014KT 9999 FEW060 SCT090 22/11 Q1022 NOSIG
VFR 22°C / 11°C 80º 13kt >10km - Few Clouds 6000ft
Scattered Clouds 8000ft
1021 No Significant change LOWI 261450Z 08013KT 9999 FEW060 SCT080 22/11 Q1021 NOSIG
VFR 23°C / 11°C 90º variable 040º to 120º 11kt >10km - Few Clouds 6000ft 1021 No Significant change LOWI 261420Z 09011KT 040V120 9999 FEW060 23/11 Q1021 NOSIG
VFR 23°C / 11°C 80º variable 030º to 130º 8kt >10km - Few Clouds 6000ft 1021 No Significant change LOWI 261350Z 08008KT 030V130 9999 FEW060 23/11 Q1021 NOSIG
VFR 23°C / 12°C 90º variable 020º to 140º 8kt >10km - Few Clouds 7000ft 1021 No Significant change LOWI 261320Z 09008KT 020V140 9999 FEW070 23/12 Q1021 NOSIG
VFR 22°C / 11°C 40º variable 360º to 090º 7kt >10km - Few Clouds 7000ft 1022 No Significant change LOWI 261250Z 04007KT 360V090 9999 FEW070 22/11 Q1022 NOSIG
VFR 22°C / 11°C variable 4kt >10km - Scattered Clouds 6500ft 1022 No Significant change LOWI 261220Z VRB04KT 9999 SCT065 22/11 Q1022 NOSIG
VFR 22°C / 12°C variable 4kt >10km - Scattered Clouds 6000ft 1022 No Significant change LOWI 261150Z VRB04KT 9999 SCT060 22/12 Q1022 NOSIG
VFR 21°C / 11°C variable 4kt >10km - Scattered Clouds 5000ft 1023 No Significant change LOWI 261120Z VRB04KT 9999 SCT050 21/11 Q1023 NOSIG
VFR 20°C / 10°C 120º variable 070º to 180º 7kt >10km - Few Clouds 4500ft
Scattered Clouds 6500ft
1023 No Significant change LOWI 261050Z 12007KT 070V180 9999 FEW045 SCT065 20/10 Q1023 NOSIG
VFR 19°C / 10°C variable 3kt >10km - Few Clouds 4000ft
Scattered Clouds 6500ft
1024 No Significant change LOWI 261020Z VRB03KT 9999 FEW040 SCT065 19/10 Q1024 NOSIG
VFR 18°C / 11°C variable 4kt >10km - Few Clouds 3000ft
Scattered Clouds 6000ft
1024 No Significant change LOWI 260950Z VRB04KT 9999 FEW030 SCT060 18/11 Q1024 NOSIG
VFR 18°C / 11°C variable 3kt >10km - Few Clouds 2000ft
Broken Clouds 6500ft
1024 No Significant change LOWI 260920Z VRB03KT 9999 FEW020 BKN065 18/11 Q1024 NOSIG
VFR 17°C / 10°C 260º variable 220º to 300º 4kt >10km - Scattered Clouds 2500ft
Broken Clouds 6500ft
1024 No Significant change LOWI 260850Z 26004KT 220V300 9999 SCT025 BKN065 17/10 Q1024 NOSIG
VFR 16°C / 10°C variable 3kt >10km - Few Clouds 2000ft
Scattered Clouds 3000ft
Broken Clouds 6500ft
1024 No Significant change LOWI 260820Z VRB03KT 9999 FEW020 SCT030 BKN065 16/10 Q1024 NOSIG

VFR

17°C / 11°C

[Още]
Вятър variable 1kt
Видимост >10km
Времето -
Облаци Few Clouds 5000ft
Налягане 1023
Промяна No Significant change
Сурови LOWI 261950Z VRB01KT 9999 FEW050 17/11 Q1023 NOSIG

VFR

18°C / 11°C

[Още]
Вятър variable 2kt
Видимост >10km
Времето -
Облаци Few Clouds 5000ft
Налягане 1023
Промяна No Significant change
Сурови LOWI 261920Z VRB02KT 9999 FEW050 18/11 Q1023 NOSIG

VFR

18°C / 12°C

[Още]
Вятър variable 2kt
Видимост >10km
Времето -
Облаци Few Clouds 5000ft
Налягане 1023
Промяна No Significant change
Сурови LOWI 261850Z VRB02KT 9999 FEW050 18/12 Q1023 NOSIG

VFR

20°C / 11°C

[Още]
Вятър 100º variable 050º to 120º 7kt
Видимост >10km
Времето -
Облаци Few Clouds 5000ft
Налягане 1022
Промяна No Significant change
Сурови LOWI 261820Z 10007KT 050V120 9999 FEW050 20/11 Q1022 NOSIG

VFR

20°C / 12°C

[Още]
Вятър 50º variable 020º to 110º 5kt
Видимост >10km
Времето -
Облаци Few Clouds 6000ft
Налягане 1022
Промяна No Significant change
Сурови LOWI 261750Z 05005KT 020V110 9999 FEW060 20/12 Q1022 NOSIG

VFR

21°C / 10°C

[Още]
Вятър 90º 10kt
Видимост >10km
Времето -
Облаци Few Clouds 6000ft
Налягане 1022
Промяна No Significant change
Сурови LOWI 261720Z 09010KT 9999 FEW060 21/10 Q1022 NOSIG

VFR

21°C / 11°C

[Още]
Вятър 100º variable 070º to 130º 10kt
Видимост >10km
Времето -
Облаци Few Clouds 6000ft
Налягане 1022
Промяна No Significant change
Сурови LOWI 261650Z 10010KT 070V130 9999 FEW060 21/11 Q1022 NOSIG

VFR

22°C / 11°C

[Още]
Вятър 90º 11kt
Видимост >10km
Времето -
Облаци Few Clouds 6000ft
Налягане 1022
Промяна No Significant change
Сурови LOWI 261620Z 09011KT 9999 FEW060 22/11 Q1022 NOSIG

VFR

22°C / 11°C

[Още]
Вятър 90º 12kt
Видимост >10km
Времето -
Облаци Few Clouds 6000ft
Налягане 1022
Промяна No Significant change
Сурови LOWI 261550Z 09012KT 9999 FEW060 22/11 Q1022 NOSIG

VFR

22°C / 11°C

[Още]
Вятър 90º 14kt
Видимост >10km
Времето -
Облаци Few Clouds 6000ft
Scattered Clouds 9000ft
Налягане 1022
Промяна No Significant change
Сурови LOWI 261520Z 09014KT 9999 FEW060 SCT090 22/11 Q1022 NOSIG

VFR

22°C / 11°C

[Още]
Вятър 80º 13kt
Видимост >10km
Времето -
Облаци Few Clouds 6000ft
Scattered Clouds 8000ft
Налягане 1021
Промяна No Significant change
Сурови LOWI 261450Z 08013KT 9999 FEW060 SCT080 22/11 Q1021 NOSIG

VFR

23°C / 11°C

[Още]
Вятър 90º variable 040º to 120º 11kt
Видимост >10km
Времето -
Облаци Few Clouds 6000ft
Налягане 1021
Промяна No Significant change
Сурови LOWI 261420Z 09011KT 040V120 9999 FEW060 23/11 Q1021 NOSIG

VFR

23°C / 11°C

[Още]
Вятър 80º variable 030º to 130º 8kt
Видимост >10km
Времето -
Облаци Few Clouds 6000ft
Налягане 1021
Промяна No Significant change
Сурови LOWI 261350Z 08008KT 030V130 9999 FEW060 23/11 Q1021 NOSIG

VFR

23°C / 12°C

[Още]
Вятър 90º variable 020º to 140º 8kt
Видимост >10km
Времето -
Облаци Few Clouds 7000ft
Налягане 1021
Промяна No Significant change
Сурови LOWI 261320Z 09008KT 020V140 9999 FEW070 23/12 Q1021 NOSIG

VFR

22°C / 11°C

[Още]
Вятър 40º variable 360º to 090º 7kt
Видимост >10km
Времето -
Облаци Few Clouds 7000ft
Налягане 1022
Промяна No Significant change
Сурови LOWI 261250Z 04007KT 360V090 9999 FEW070 22/11 Q1022 NOSIG

VFR

22°C / 11°C

[Още]
Вятър variable 4kt
Видимост >10km
Времето -
Облаци Scattered Clouds 6500ft
Налягане 1022
Промяна No Significant change
Сурови LOWI 261220Z VRB04KT 9999 SCT065 22/11 Q1022 NOSIG

VFR

22°C / 12°C

[Още]
Вятър variable 4kt
Видимост >10km
Времето -
Облаци Scattered Clouds 6000ft
Налягане 1022
Промяна No Significant change
Сурови LOWI 261150Z VRB04KT 9999 SCT060 22/12 Q1022 NOSIG

VFR

21°C / 11°C

[Още]
Вятър variable 4kt
Видимост >10km
Времето -
Облаци Scattered Clouds 5000ft
Налягане 1023
Промяна No Significant change
Сурови LOWI 261120Z VRB04KT 9999 SCT050 21/11 Q1023 NOSIG

VFR

20°C / 10°C

[Още]
Вятър 120º variable 070º to 180º 7kt
Видимост >10km
Времето -
Облаци Few Clouds 4500ft
Scattered Clouds 6500ft
Налягане 1023
Промяна No Significant change
Сурови LOWI 261050Z 12007KT 070V180 9999 FEW045 SCT065 20/10 Q1023 NOSIG

VFR

19°C / 10°C

[Още]
Вятър variable 3kt
Видимост >10km
Времето -
Облаци Few Clouds 4000ft
Scattered Clouds 6500ft
Налягане 1024
Промяна No Significant change
Сурови LOWI 261020Z VRB03KT 9999 FEW040 SCT065 19/10 Q1024 NOSIG

VFR

18°C / 11°C

[Още]
Вятър variable 4kt
Видимост >10km
Времето -
Облаци Few Clouds 3000ft
Scattered Clouds 6000ft
Налягане 1024
Промяна No Significant change
Сурови LOWI 260950Z VRB04KT 9999 FEW030 SCT060 18/11 Q1024 NOSIG

VFR

18°C / 11°C

[Още]
Вятър variable 3kt
Видимост >10km
Времето -
Облаци Few Clouds 2000ft
Broken Clouds 6500ft
Налягане 1024
Промяна No Significant change
Сурови LOWI 260920Z VRB03KT 9999 FEW020 BKN065 18/11 Q1024 NOSIG

VFR

17°C / 10°C

[Още]
Вятър 260º variable 220º to 300º 4kt
Видимост >10km
Времето -
Облаци Scattered Clouds 2500ft
Broken Clouds 6500ft
Налягане 1024
Промяна No Significant change
Сурови LOWI 260850Z 26004KT 220V300 9999 SCT025 BKN065 17/10 Q1024 NOSIG

VFR

16°C / 10°C

[Още]
Вятър variable 3kt
Видимост >10km
Времето -
Облаци Few Clouds 2000ft
Scattered Clouds 3000ft
Broken Clouds 6500ft
Налягане 1024
Промяна No Significant change
Сурови LOWI 260820Z VRB03KT 9999 FEW020 SCT030 BKN065 16/10 Q1024 NOSIG

TAF за Инсбрук (LOWI)

From till


Maximum Temperature 26ºC on . Minimum Temperature 11ºC on .
From till Wind 90º 8kt. Visibility 10km or more. Few Clouds 4000ft. Scattered Clouds 7000ft.
Becoming from till Wind 270º 4kt. Visibility 10km or more. Few Clouds 4000ft. Scattered Clouds 7000ft.
Becoming from till Wind 90º 8kt. Visibility 10km or more. Few Clouds 4000ft. Scattered Clouds 7000ft.

Сурови: TAF LOWI 261715Z 2618/2718 09008KT 9999 FEW040 SCT070 TX26/2714Z TN11/2704Z BECMG 2618/2620 27004KT BECMG 2708/2710 09008KT

Радар за Инсбрук

Ситен дъжд
Лек
Умерен
Тежък
Много тежък
Аве

Маркерът за локация обозначава Инсбрук. Анимацията показва Радара за валежи за последния час, както и прогноза за 2h. Дъждът или лекият сняг може да са невидими за радара. Интензивността на валежите е обозначена с цветни кодове, вариращи от светлосиньо до оранжево.
Copyright 2022 Deutscher Wetterdienst / meteoblue.

Актуални сателитни и дъждовни снимки за Инсбрук, Австрия

Маркерът за локация е поставен върху Инсбрук. [Още]

Сателитното изображение в реално време съчетава видимата светлина през деня с инфрачервеното лъчение през нощта. През нощта изображението не е тъмно, тъй като инфрачервеното лъчение може да открива температурни разлики. За съжаление ниските облаци и мъглата са трудни за разграничаване от температурите на земята и затова могат да бъдат почти невидими през нощта. Сателитните изображения на Meteosat за Европа се актуализират в реално време на всеки 5 минути. Изображенията GOES-16/GOES-17 (Северна и Южна Америка) и Химавари (Азия) се актуализират на всеки 10 минути.

Валежите се изчисляват на база информация от радари и сателити. Нощните прогнози за валежи от сателити са с по-ниска прецизност от дневните прогнози. Оранжевите кръстове маркират локациите, на които са засечени светкавици (над Европа).

Всички права запазени 2022 EUMETSAT / meteoblue. Данни за светкавици, предоставени от nowcast.

Върнете се в началото